Vladimir Milenkovic

Recruteur en chef - Vojvodina
19 Nov 2028
Dimanche
Processus

Personnalité

Adaptabilité (6) Ambition (6) Controverse (9) Loyauté (18) Pression (17) Professionnalisme (9) Sportivité (5) Tempérament (19)

Profil

Style d'entraînement Démocratique
Diplôme National B
Détermination 7
Gestion des joueurs 12
Motivation 4
Discipline 5
Satisfaction professionnelle
100%
Fatigue
0%
Rôle Recruteur en chef
Salaire 45.0K p/s
Contrat 14.03.2029

Performance

Comportement Bon
Efficacité de l'entraînement
36%
Développement des joueurs
25%
Prévention des blessures
35%
Mise en place tactique
30%

Événements récents

A participé à une réunion de recrutement maintenant
A participé à une réunion de recrutement maintenant
A recommandé une cible de transfert maintenant
A recommandé une cible de transfert maintenant
A recommandé une cible de transfert maintenant
A recommandé une cible de transfert 7j
A recommandé une cible de transfert 7j
A observé un match 7j

Suivi en cours

217
Joueur Club Statut Capacité Confiance Observé Dernière observation Dernier vote
Borko Duronjić Radnik Surdulica Actif 111 / 99 62% 1 21.08.2028 Approuver
André Miranda Porto Actif 121 / 121 40% 3 08.08.2028 -
Abdoulaye Allamine Stars Jeunes Talents Actif 66 / 77 40% 1 08.08.2028 -
Jake Evans Crewe Alexandra Actif 115 / 127 40% 4 31.07.2028 -
Lennart Karl TSG Hoffenheim Actif 142 / 144 40% 1 31.07.2028 -
Riquelme Thompson-Jones Accrington Stanley Actif 108 / 115 40% 1 18.07.2028 -
Denis Grigorjev Arsenal Tula Actif 96 / 92 40% 1 03.07.2028 -
Celías Ingenthron Platense Actif 111 / 115 40% 1 26.06.2028 -
Andrija Bulatović Chamois Niortais Actif 124 / 130 40% 4 19.06.2028 -
Jenson Jones Walsall Actif 107 / 109 40% 1 12.06.2028 -
David Buchta Radnicki 1923 Perdu 119 / 119 58% 1 06.06.2028 -
Giovanni Leoni Lincoln City Actif 136 / 154 40% 1 31.05.2028 -
Darlvin Yeboah Bechem United Actif 88 / 100 40% 6 30.05.2028 -
Joshua Ajala Walsall Actif 110 / 114 40% 2 29.05.2028 -
Dmitry Nikitin Baltika Actif 86 / 97 40% 1 29.05.2028 -
Rahul Sharma Pontedera Actif 90 / 97 40% 1 26.05.2028 -
Luka Andrade Montevideo City Torque Actif 99 / 114 40% 2 25.05.2028 -
Igor Tyjon Barrow AFC Actif 116 / 131 40% 2 25.05.2028 -
Francisco Souza Silva Feirense Actif 113 / 118 40% 4 24.05.2028 -
Ivan Denysov Rukh Actif 84 / 101 40% 2 24.05.2028 -
Nathan Mbala FC Metz Actif 99 / 106 40% 5 23.05.2028 -
Nazif Inoussa Benfica Actif 76 / 87 40% 3 22.05.2028 -
João Tavares Porto Actif 82 / 94 40% 2 20.05.2028 -
Rémi Himbert AC Ajaccio Actif 119 / 122 40% 1 20.05.2028 -
Cristian Carrara Guidonia Montecelio Actif 99 / 104 40% 4 19.05.2028 -
Ousseynou Seck Randers Actif 108 / 140 40% 1 18.05.2028 -
Luca Williams-Barnett Walsall Actif 121 / 135 40% 6 16.05.2028 -
Baba N'Diaye Chaika Actif 88 / 90 40% 3 13.05.2028 -
Otto Stange Borussia Mönchengladbach Actif 136 / 128 40% 2 12.05.2028 -
Andrea Luongo Trento Actif 105 / 105 40% 1 10.05.2028 -
Artur Kozyrev Volna Actif 98 / 89 40% 1 09.05.2028 -
Fletcher Boyd Accrington Stanley Actif 108 / 108 40% 3 08.05.2028 -
Mattia Esposito Virtus Verona Actif 86 / 87 40% 1 08.05.2028 -
Sam Amo-Ameyaw RC Strasbourg Actif 123 / 138 40% 1 07.05.2028 -
Ryan Oné Sheffield United Actif 119 / 128 40% 2 02.05.2028 -
Kylian Kouakou Valenciennes Actif 91 / 103 40% 2 24.04.2028 -
Mahmoud Salah El Dakhleya Actif 70 / 105 40% 1 20.04.2028 -
Louis Zecevic-John Colchester United Actif 93 / 102 40% 1 20.04.2028 -
Kaye Furo Reading Actif 115 / 120 40% 1 19.04.2028 -
Jamal Iddrissou Pergolettese Actif 113 / 112 40% 1 13.04.2028 -
Lovre Kulušić Dinamo Zagreb Actif 108 / 118 40% 1 10.04.2028 -
Luke Baartman Ajax Cape Town Actif 120 / 122 40% 7 09.04.2028 -
Luca Meirelles Kudrivka Actif 115 / 124 40% 4 09.04.2028 -
Siyabonga Mabena Bidvest Wits Actif 128 / 144 40% 6 06.04.2028 -
Ryan Kavuma-McQueen Accrington Stanley Actif 126 / 131 40% 3 06.04.2028 -
Michael Noumon Heart of Lions Actif 69 / 88 40% 4 05.04.2028 -
Ahmed Khaled Paralimni Actif 100 / 120 40% 1 04.04.2028 -
Nana Nuhu WAFA Actif 84 / 99 40% 4 19.03.2028 -
Kerim Alajbegović Modena Actif 135 / 138 40% 3 16.03.2028 -
Mads Abrahamsen Zenit Penza Actif 98 / 84 40% 2 16.03.2028 -
Gomolemo Kekana Maritzburg United Actif 106 / 110 40% 1 15.03.2028 -
Lander Astiazarán Real Sociedad Actif 110 / 109 40% 5 13.03.2028 -
Víctor Guzmán Sporting CP Actif 101 / 118 40% 5 12.03.2028 -
Josh Nichols Oldham Athletic Actif 112 / 125 40% 4 12.03.2028 -
Ben Broggio Mansfield Town Actif 110 / 122 40% 2 11.03.2028 -
Henrique Carmo Sochi Actif 134 / 133 40% 1 11.03.2028 -
Oscar Schwartau Norwich City Actif 136 / 128 40% 2 09.03.2028 -
Luighi Palmeiras Actif 115 / 106 40% 2 09.03.2028 -
Ryan McAidoo Oldham Athletic Actif 127 / 136 40% 2 08.03.2028 -
Luke Brooke-Smith Chesterfield Actif 106 / 116 40% 1 08.03.2028 -
Isaque Obolon Actif 130 / 125 40% 2 06.03.2028 -
Ruben Ramos LA Galaxy Actif 106 / 97 40% 1 22.02.2028 -
Leo Pecover Swindon Town Actif 101 / 112 40% 1 19.02.2028 -
Amin Nabizada Exeter City Actif 104 / 111 40% 2 17.02.2028 -
Gabe Forsyth Colchester United Actif 102 / 123 40% 1 12.02.2028 -
Xavier Jodamus Jomo Cosmos Actif 85 / 82 40% 1 08.02.2028 -
Rafael Lobato Rio Ave Actif 117 / 119 40% 1 07.02.2028 -
Alphadjo Cissé Lecce Actif 129 / 134 40% 1 05.02.2028 -
Romelle Donovan Brentford Actif 131 / 128 40% 2 04.02.2028 -
Eduardo Fernandes Benfica Actif 123 / 115 40% 1 03.02.2028 -
Nestory Irankunda Watford Actif 119 / 133 40% 1 03.02.2028 -
Matias Siltanen Malmo FF Actif 128 / 124 40% 2 31.01.2028 -
Rio Ngumoha Plymouth Argyle Actif 145 / 140 40% 1 31.01.2028 -
Nicolás Barros Schelotto Gimnasia La Plata Actif 115 / 127 40% 2 30.01.2028 -
Zane Albarus Shrewsbury Town Actif 104 / 110 40% 3 27.01.2028 -
Tyron Kariuki KCB Actif 76 / 87 40% 3 27.01.2028 -
Matija Marsenić Cukaricki Actif 104 / 93 58% 1 24.01.2028 Approuver
Dânio Djassi Portimonense Actif 111 / 122 40% 1 24.01.2028 -
Alex Verón Vélez Actif 116 / 133 40% 1 24.01.2028 -
Joel Medina Independiente Actif 116 / 132 40% 1 05.12.2027 -
Chimobi Igwilo Rangers International Actif 93 / 109 40% 2 04.12.2027 -
Juan Camilo Córdoba Deportivo Pereira Actif 77 / 94 40% 1 03.12.2027 -
Matías Arias Vélez Actif 122 / 110 40% 3 02.12.2027 -
Victor Hernandez Santa Fe Actif 122 / 116 40% 1 02.12.2027 -
Tiago Pucciarelli IF Elfsborg Actif 89 / 104 40% 1 30.11.2027 -
Alex Amaefula Kun Khalifat Actif 96 / 89 40% 2 27.11.2027 -
Dániel Pintér Inter Miami CF Actif 98 / 107 40% 1 27.11.2027 -
Nicolás Ferreira Artigas Actif 74 / 98 40% 1 24.11.2027 -
Pedro Baltika Actif 144 / 152 40% 1 24.11.2027 -
Jayden Danns Bradford City Actif 127 / 146 40% 1 23.11.2027 -
Christ Wawa Gefle Actif 115 / 102 40% 2 22.11.2027 -
Julián Bragado Morón Actif 92 / 79 40% 1 22.11.2027 -
Albert Aleksanjan IFK Norrkoping Actif 101 / 113 40% 1 21.11.2027 -
Joseph Abah Remo Stars Actif 102 / 110 40% 1 18.11.2027 -
Lucas Nicol Mjondalen Actif 74 / 90 40% 1 16.11.2027 -
Giovanni Baroni Talleres Actif 107 / 114 40% 2 14.11.2027 -
Hassan Beja AFC Leopards Actif 74 / 94 40% 1 13.11.2027 -
Francisco Triver River Plate Actif 95 / 92 40% 1 12.11.2027 -
Jeremías Merlo Gimnasia La Plata Actif 121 / 115 40% 1 09.11.2027 -
Joel Ezra Enyimba Actif 80 / 92 40% 3 04.11.2027 -
Matías Canedo Rampla Juniors Actif 95 / 87 40% 1 01.11.2027 -
Lucas Camejo River Plate Actif 80 / 91 40% 2 04.10.2027 -
Nahuel Leivas Montevideo City Torque Actif 110 / 120 40% 1 04.10.2027 -
Serge Daura PWD Bamenda Actif 97 / 118 40% 3 18.08.2027 -
Peter Amidu Acquah Asante Kotoko Actif 100 / 86 40% 2 18.08.2027 -
Temur Odilov Mara Sugar Actif 67 / 87 40% 1 17.08.2027 -
Daniel Awuni Aduana Stars Actif 88 / 105 40% 3 11.08.2027 -
Calum Agius Crewe Alexandra Actif 108 / 94 40% 3 09.08.2027 -
Tiago Freitas Benfica Actif 117 / 116 40% 1 06.08.2027 -
Gabriele Bertolini Vicenza Actif 98 / 103 40% 1 06.08.2027 -
Othmane Maamma Watford Actif 122 / 141 40% 2 05.08.2027 -
Cristiano La Sorsa Trapani Actif 95 / 88 40% 1 03.08.2027 -
Stevan Manuel Benfica Actif 107 / 118 40% 1 03.08.2027 -
Mustapha Umar Kano Pillars Actif 83 / 88 40% 1 13.07.2027 -
Mattia Della Rocca Pontedera Actif 89 / 92 40% 1 06.07.2027 -
Christ Kouadio Radnik Surdulica Actif 104 / 93 58% 1 21.06.2027 -
Gonçalo Oliveira Benfica Actif 113 / 114 40% 1 06.06.2027 -
Riyad Idrissi Cagliari Actif 124 / 126 40% 1 06.06.2027 -
Ramadan Ashour Sporting Cristal Actif 120 / 120 67% 1 01.06.2027 Approuver
Tamas Kleinheisler St. Pauli Actif 114 / 121 66% 1 01.06.2027 Approuver
Rhys Walters Port Vale Actif 97 / 110 40% 1 01.06.2027 -
Máximo Seggio Crawley Town Actif 84 / 89 40% 2 30.05.2027 -
Elijas Gunnergård Ortan Ahrobiznes Actif 75 / 86 40% 1 29.05.2027 -
Mikel Gogorza Brondby Actif 131 / 139 40% 2 27.05.2027 -
Rafael Moreno Atletico Venezuela Actif 110 / 101 40% 3 27.05.2027 -
Miloš Jovičić Zabbar St. Patrick Actif 87 / 101 40% 4 26.05.2027 -
Jan Bürger Northampton Town Actif 111 / 112 40% 1 25.05.2027 -
Dilan Neves Benfica Actif 74 / 93 40% 3 23.05.2027 -
Mateus Mané Burnley Actif 135 / 136 40% 6 21.05.2027 -
Luka Đorđević Cukaricki Actif 99 / 97 40% 3 19.05.2027 -
Maren Kefas Plateau United Actif 84 / 86 40% 1 17.05.2027 -
Borna Knezović Casarano Actif 103 / 113 40% 2 11.05.2027 -
Stanley Amon Bayelsa United Actif 101 / 98 40% 4 10.05.2027 -
Alagie Wally Veres Actif 83 / 103 40% 2 09.05.2027 -
Teboho Zwane Ajax Cape Town Actif 79 / 105 40% 4 07.05.2027 -
Leo Castledine Middlesbrough Actif 133 / 131 40% 6 06.05.2027 -
Njabulo Hlongwane AS Korofina Actif 72 / 66 40% 1 06.05.2027 -
Ben Ahmed Kohili Paradou Actif 113 / 111 40% 1 03.05.2027 -
Godbless Ayeke AS Bakaridjan Actif 92 / 88 40% 2 01.05.2027 -
Fletcher Holman Swindon Town Actif 82 / 88 40% 3 01.05.2027 -
Sergey Gaiduk Salyut Actif 85 / 70 40% 3 30.04.2027 -
Dani Ángel Sampdoria Actif 96 / 91 40% 4 27.04.2027 -
Alen Vukaj Alcione Milano Actif 84 / 102 40% 1 27.04.2027 -
Abubakar Garba Nasarawa United Actif 75 / 94 40% 2 24.04.2027 -
Lwanda Mbanjwa Platinum Stars Actif 101 / 86 40% 4 23.04.2027 -
Jonás Luna Wanderers Actif 116 / 125 40% 1 20.04.2027 -
David Fernández O'Higgins Actif 101 / 121 40% 1 19.04.2027 -
Mike Themsen Randers Actif 107 / 136 40% 1 19.04.2027 -
Rocco Vata Watford Actif 121 / 129 40% 1 08.04.2027 -
Chineme Chinonso Ikorodu City Actif 94 / 82 40% 1 29.03.2027 -
Eduardo Lozano Botafogo Actif 146 / 144 40% 1 26.03.2027 -
Gosiame Ngobeni New Edubiase United Actif 61 / 64 40% 1 24.03.2027 -
Will Lankshear Middlesbrough Actif 126 / 116 40% 1 20.03.2027 -
Joseph George Aigle Royal de Moungo Actif 100 / 104 40% 1 17.03.2027 -
Lorenzo De Leo Renate Actif 92 / 94 40% 1 15.03.2027 -
Braiden Graham Everton Actif 93 / 97 40% 1 13.03.2027 -
Sam Greenwood Bristol City Actif 130 / 130 40% 1 18.01.2027 -
Sam Dalby Bolton Wanderers Actif 120 / 109 40% 1 18.01.2027 -
Ar'jany Martha Rotherham United Actif 100 / 114 40% 1 29.12.2026 -
Bongani Zungu Ajax Cape Town Actif 130 / 136 40% 1 29.12.2026 -
Bienvenue Kanakimana Zbrojovka Brno Actif 118 / 121 40% 2 28.12.2026 -
Tomáš Rigo Stoke City Actif 138 / 132 40% 1 27.12.2026 -
Kristoffer Lund Birmingham Actif 129 / 121 40% 1 27.12.2026 -
Lukáš Červ Viktoria Plzen Actif 122 / 133 40% 1 26.12.2026 -
Cian Ashford Cardiff City Actif 112 / 123 40% 1 25.12.2026 -
Fiete Arp OB Actif 119 / 129 40% 1 25.12.2026 -
Juan Pablo Gallego Fehervar Actif 112 / 108 40% 1 23.12.2026 -
Rabiu Abdullahi Bylis Actif 86 / 103 40% 1 22.12.2026 -
Adam Randell Bristol City Actif 125 / 130 40% 1 22.12.2026 -
Thomas Carrique Andorra Actif 121 / 117 40% 2 21.12.2026 -
Bazoumana Touré Newcastle United Actif 136 / 142 40% 1 21.12.2026 -
Milan Vukotić Partizan Actif 132 / 113 40% 3 18.12.2026 Observer
Dominik Pleštil Bohemians 1905 Actif 104 / 109 40% 1 16.12.2026 -
Tyrese Campbell Sheffield United Actif 135 / 133 40% 1 15.12.2026 -
Max Johnston Derby County Actif 133 / 121 40% 1 14.12.2026 -
Oliver Skipp Leicester City Actif 137 / 133 40% 1 11.12.2026 -
Ali Ahmed Norwich City Actif 122 / 124 40% 1 11.12.2026 -
Kirill Cheburakov Rostov Actif 69 / 77 40% 1 10.12.2026 -
Alfie Doughty Millwall Actif 129 / 119 40% 1 08.12.2026 -
Joel Bagan Cardiff City Actif 113 / 106 40% 1 07.12.2026 -
Scott Twine Bristol City Actif 129 / 125 40% 1 06.12.2026 -
Andrey Domotsev Mashuk Actif 81 / 91 40% 1 06.12.2026 -
Jesus Ferreira Seattle Sounders Actif 137 / 126 40% 1 04.12.2026 -
Juan Bezerra Zamalek Actif 109 / 108 40% 3 03.12.2026 -
Jalal Abdullai Molde Actif 99 / 109 40% 2 03.12.2026 -
Matías Contrera Hrvatski Dragovoljac Actif 102 / 100 40% 1 03.12.2026 -
Manu Morlanes Mallorca Actif 134 / 145 40% 1 01.12.2026 -
Cheick Oumar Souaré Viktoria Plzen Actif 123 / 115 40% 1 01.12.2026 -
Arsen Adamov Akhmat Grozny Actif 125 / 111 40% 1 30.11.2026 -
Marcelo Allende Mamelodi Sundowns Actif 117 / 138 40% 1 30.11.2026 -
Oswin Appollis Orlando Pirates Actif 121 / 121 40% 1 29.11.2026 -
Reda Khadra Qarabag Actif 136 / 120 40% 2 28.11.2026 -
Maximo Ingravidi Colón Actif 111 / 109 40% 1 27.11.2026 -
Thabang Matuludi Polokwane City Actif 105 / 126 40% 1 27.11.2026 -
Bojica Nikčević Radnicki 1923 Actif 111 / 101 40% 1 27.11.2026 -
Filip Kubala Banik Ostrava Actif 128 / 112 40% 1 26.11.2026 -
Gizo Mamageishvili Sturm Graz Actif 124 / 118 40% 1 26.11.2026 -
David Kalokoh Ajax Actif 119 / 114 40% 1 24.11.2026 -
Marco Pašalić Orlando City Actif 125 / 126 40% 1 24.11.2026 -
Themba Dala Black Aces Actif 126 / 101 40% 1 21.11.2026 -
Sandi Balkovec NK Domzale Actif 80 / 84 40% 1 20.11.2026 -
Luka Stojković Dinamo Zagreb Actif 127 / 126 40% 1 16.11.2026 -
Daniel Kyerewaa Reading Actif 110 / 119 40% 1 13.11.2026 -
Tio Cipot NK Maribor Actif 123 / 120 40% 1 11.11.2026 -
Erik Botheim Viking Actif 139 / 112 40% 1 06.11.2026 -
Jens Petter Hauge Bodo/Glimt Actif 125 / 128 40% 1 04.11.2026 -
Tadeo Allende Inter Miami CF Actif 134 / 112 40% 1 03.11.2026 -
Frederik Carstensen Sarpsborg 08 Actif 121 / 121 40% 1 02.11.2026 -
Simphiwe Selepe Orlando Pirates Actif 102 / 124 40% 1 22.10.2026 -
Nikola Krstić IMT Perdu 100 / 110 40% 1 21.10.2026 -
Sanel Šaljić Austria Wien Actif 117 / 114 40% 1 18.10.2026 -
Dean Jali Platinum Stars Actif 110 / 112 40% 1 18.10.2026 -
Shola Ogundana Dynamo Kyiv Actif 125 / 113 40% 1 12.10.2026 -
David Ozoh Derby County Actif 128 / 125 40% 1 09.10.2026 -
Agustín Medina Lanús Actif 116 / 123 40% 2 07.10.2026 -
Yahaya Ibrahim Plateau United Actif 89 / 96 40% 1 07.09.2026 -
Marko Ćurić Zeleznicar Pancevo Actif 97 / 87 55% 1 24.08.2026 -